sensor_id;sensor_type;location;lat;lon;timestamp;P1;durP1;ratioP1;P2;durP2;ratioP2
9689;SDS011;4884;42.614;23.340;2022-11-14T00:01:52;13.83;;;8.83;;
9689;SDS011;4884;42.614;23.340;2022-11-14T00:04:17;15.43;;;10.43;;
9689;SDS011;4884;42.614;23.340;2022-11-14T00:06:42;17.87;;;12.63;;
9689;SDS011;4884;42.614;23.340;2022-11-14T00:09:08;13.43;;;10.97;;
9689;SDS011;4884;42.614;23.340;2022-11-14T00:11:33;18.53;;;12.17;;
9689;SDS011;4884;42.614;23.340;2022-11-14T00:13:58;10.57;;;7.53;;
9689;SDS011;4884;42.614;23.340;2022-11-14T00:16:24;10.60;;;6.30;;
9689;SDS011;4884;42.614;23.340;2022-11-14T00:18:49;11.93;;;6.13;;
9689;SDS011;4884;42.614;23.340;2022-11-14T00:21:15;8.20;;;5.03;;
9689;SDS011;4884;42.614;23.340;2022-11-14T00:23:40;9.50;;;5.83;;
9689;SDS011;4884;42.614;23.340;2022-11-14T00:26:05;6.57;;;5.40;;
9689;SDS011;4884;42.614;23.340;2022-11-14T00:28:31;11.03;;;8.67;;
9689;SDS011;4884;42.614;23.340;2022-11-14T00:30:56;10.10;;;8.60;;
9689;SDS011;4884;42.614;23.340;2022-11-14T00:33:22;10.77;;;8.57;;
9689;SDS011;4884;42.614;23.340;2022-11-14T00:35:53;7.40;;;6.60;;
9689;SDS011;4884;42.614;23.340;2022-11-14T00:38:20;10.10;;;6.97;;
9689;SDS011;4884;42.614;23.340;2022-11-14T00:40:46;8.30;;;6.00;;
9689;SDS011;4884;42.614;23.340;2022-11-14T00:43:11;10.73;;;7.30;;
9689;SDS011;4884;42.614;23.340;2022-11-14T00:45:36;10.97;;;8.10;;
9689;SDS011;4884;42.614;23.340;2022-11-14T00:48:02;13.50;;;9.33;;
9689;SDS011;4884;42.614;23.340;2022-11-14T00:50:27;16.17;;;8.17;;
9689;SDS011;4884;42.614;23.340;2022-11-14T00:52:53;14.07;;;6.77;;
9689;SDS011;4884;42.614;23.340;2022-11-14T00:55:18;14.73;;;8.47;;
9689;SDS011;4884;42.614;23.340;2022-11-14T00:57:43;12.73;;;8.47;;
9689;SDS011;4884;42.614;23.340;2022-11-14T01:00:09;12.73;;;10.20;;
9689;SDS011;4884;42.614;23.340;2022-11-14T01:02:35;20.70;;;13.97;;
9689;SDS011;4884;42.614;23.340;2022-11-14T01:05:01;21.13;;;12.70;;
9689;SDS011;4884;42.614;23.340;2022-11-14T01:07:26;13.03;;;11.00;;
9689;SDS011;4884;42.614;23.340;2022-11-14T01:09:52;8.60;;;6.43;;
9689;SDS011;4884;42.614;23.340;2022-11-14T01:12:17;8.83;;;6.70;;
9689;SDS011;4884;42.614;23.340;2022-11-14T01:14:43;10.87;;;8.03;;
9689;SDS011;4884;42.614;23.340;2022-11-14T01:17:09;8.83;;;6.50;;
9689;SDS011;4884;42.614;23.340;2022-11-14T01:19:34;8.97;;;5.80;;
9689;SDS011;4884;42.614;23.340;2022-11-14T01:21:59;6.17;;;5.10;;
9689;SDS011;4884;42.614;23.340;2022-11-14T01:24:25;7.70;;;5.63;;
9689;SDS011;4884;42.614;23.340;2022-11-14T01:26:50;13.93;;;10.87;;
9689;SDS011;4884;42.614;23.340;2022-11-14T01:29:19;12.20;;;8.00;;
9689;SDS011;4884;42.614;23.340;2022-11-14T01:31:44;11.53;;;8.13;;
9689;SDS011;4884;42.614;23.340;2022-11-14T01:34:10;8.90;;;6.97;;
9689;SDS011;4884;42.614;23.340;2022-11-14T01:36:35;7.27;;;6.27;;
9689;SDS011;4884;42.614;23.340;2022-11-14T01:39:00;7.50;;;5.50;;
9689;SDS011;4884;42.614;23.340;2022-11-14T01:41:25;7.47;;;5.90;;
9689;SDS011;4884;42.614;23.340;2022-11-14T01:43:51;9.20;;;7.27;;
9689;SDS011;4884;42.614;23.340;2022-11-14T01:46:24;7.90;;;6.07;;
9689;SDS011;4884;42.614;23.340;2022-11-14T01:54:00;8.60;;;7.50;;
9689;SDS011;4884;42.614;23.340;2022-11-14T01:56:29;7.33;;;6.40;;
9689;SDS011;4884;42.614;23.340;2022-11-14T01:59:00;7.40;;;5.97;;
9689;SDS011;4884;42.614;23.340;2022-11-14T02:01:28;5.93;;;5.30;;
9689;SDS011;4884;42.614;23.340;2022-11-14T02:03:55;7.83;;;6.37;;
9689;SDS011;4884;42.614;23.340;2022-11-14T02:06:21;7.70;;;5.87;;
9689;SDS011;4884;42.614;23.340;2022-11-14T02:08:48;9.40;;;5.73;;
9689;SDS011;4884;42.614;23.340;2022-11-14T02:11:15;8.60;;;6.47;;
9689;SDS011;4884;42.614;23.340;2022-11-14T02:13:40;7.60;;;4.67;;
9689;SDS011;4884;42.614;23.340;2022-11-14T02:16:05;5.90;;;5.30;;
9689;SDS011;4884;42.614;23.340;2022-11-14T02:18:31;6.20;;;5.03;;
9689;SDS011;4884;42.614;23.340;2022-11-14T02:20:56;6.80;;;5.47;;
9689;SDS011;4884;42.614;23.340;2022-11-14T02:23:25;7.20;;;5.47;;
9689;SDS011;4884;42.614;23.340;2022-11-14T02:25:52;7.73;;;6.47;;
9689;SDS011;4884;42.614;23.340;2022-11-14T02:28:17;10.17;;;7.67;;
9689;SDS011;4884;42.614;23.340;2022-11-14T02:30:44;11.90;;;9.03;;
9689;SDS011;4884;42.614;23.340;2022-11-14T02:33:10;14.33;;;9.10;;
9689;SDS011;4884;42.614;23.340;2022-11-14T02:35:35;12.53;;;9.33;;
9689;SDS011;4884;42.614;23.340;2022-11-14T02:38:01;18.87;;;12.63;;
9689;SDS011;4884;42.614;23.340;2022-11-14T02:40:26;19.90;;;12.67;;
9689;SDS011;4884;42.614;23.340;2022-11-14T02:42:51;18.13;;;12.50;;
9689;SDS011;4884;42.614;23.340;2022-11-14T02:45:17;20.43;;;11.50;;
9689;SDS011;4884;42.614;23.340;2022-11-14T02:47:43;13.20;;;9.63;;
9689;SDS011;4884;42.614;23.340;2022-11-14T02:50:09;10.33;;;6.80;;
9689;SDS011;4884;42.614;23.340;2022-11-14T02:52:34;10.97;;;6.77;;
9689;SDS011;4884;42.614;23.340;2022-11-14T02:54:59;8.57;;;5.80;;
9689;SDS011;4884;42.614;23.340;2022-11-14T02:57:25;8.50;;;5.17;;
9689;SDS011;4884;42.614;23.340;2022-11-14T02:59:50;6.77;;;4.87;;
9689;SDS011;4884;42.614;23.340;2022-11-14T03:02:15;9.07;;;5.23;;
9689;SDS011;4884;42.614;23.340;2022-11-14T03:04:41;9.90;;;6.43;;
9689;SDS011;4884;42.614;23.340;2022-11-14T03:07:06;10.27;;;6.90;;
9689;SDS011;4884;42.614;23.340;2022-11-14T03:09:32;10.33;;;6.47;;
9689;SDS011;4884;42.614;23.340;2022-11-14T03:11:57;10.60;;;6.13;;
9689;SDS011;4884;42.614;23.340;2022-11-14T03:14:22;10.43;;;7.20;;
9689;SDS011;4884;42.614;23.340;2022-11-14T03:16:48;9.57;;;7.07;;
9689;SDS011;4884;42.614;23.340;2022-11-14T03:19:13;12.87;;;6.87;;
9689;SDS011;4884;42.614;23.340;2022-11-14T03:21:38;10.93;;;7.43;;
9689;SDS011;4884;42.614;23.340;2022-11-14T03:24:04;14.67;;;9.23;;
9689;SDS011;4884;42.614;23.340;2022-11-14T03:26:30;16.87;;;9.83;;
9689;SDS011;4884;42.614;23.340;2022-11-14T03:28:56;19.40;;;13.80;;
9689;SDS011;4884;42.614;23.340;2022-11-14T03:31:21;16.30;;;10.20;;
9689;SDS011;4884;42.614;23.340;2022-11-14T03:33:47;16.63;;;10.43;;
9689;SDS011;4884;42.614;23.340;2022-11-14T03:36:12;14.00;;;9.20;;
9689;SDS011;4884;42.614;23.340;2022-11-14T03:38:37;16.07;;;10.63;;
9689;SDS011;4884;42.614;23.340;2022-11-14T03:41:03;20.67;;;12.60;;
9689;SDS011;4884;42.614;23.340;2022-11-14T03:43:29;21.80;;;12.40;;
9689;SDS011;4884;42.614;23.340;2022-11-14T03:46:00;14.33;;;8.87;;
9689;SDS011;4884;42.614;23.340;2022-11-14T03:48:26;13.07;;;8.30;;
9689;SDS011;4884;42.614;23.340;2022-11-14T03:50:51;13.63;;;8.47;;
9689;SDS011;4884;42.614;23.340;2022-11-14T03:53:17;11.67;;;8.53;;
9689;SDS011;4884;42.614;23.340;2022-11-14T03:55:42;14.27;;;9.07;;
9689;SDS011;4884;42.614;23.340;2022-11-14T03:58:08;12.47;;;8.50;;
9689;SDS011;4884;42.614;23.340;2022-11-14T04:00:33;13.23;;;8.30;;
9689;SDS011;4884;42.614;23.340;2022-11-14T04:02:59;17.17;;;10.37;;
9689;SDS011;4884;42.614;23.340;2022-11-14T04:05:24;20.87;;;12.10;;
9689;SDS011;4884;42.614;23.340;2022-11-14T04:07:50;22.27;;;14.47;;
9689;SDS011;4884;42.614;23.340;2022-11-14T04:10:15;18.77;;;11.87;;
9689;SDS011;4884;42.614;23.340;2022-11-14T04:12:45;16.83;;;8.97;;
9689;SDS011;4884;42.614;23.340;2022-11-14T04:15:12;11.27;;;7.73;;
9689;SDS011;4884;42.614;23.340;2022-11-14T04:17:37;68.47;;;22.20;;
9689;SDS011;4884;42.614;23.340;2022-11-14T04:20:03;56.13;;;22.20;;
9689;SDS011;4884;42.614;23.340;2022-11-14T04:22:28;31.90;;;14.90;;
9689;SDS011;4884;42.614;23.340;2022-11-14T04:24:54;34.57;;;15.63;;
9689;SDS011;4884;42.614;23.340;2022-11-14T04:27:19;44.43;;;31.67;;
9689;SDS011;4884;42.614;23.340;2022-11-14T04:29:44;47.67;;;35.50;;
9689;SDS011;4884;42.614;23.340;2022-11-14T04:32:10;44.93;;;34.13;;
9689;SDS011;4884;42.614;23.340;2022-11-14T04:34:35;32.90;;;23.87;;
9689;SDS011;4884;42.614;23.340;2022-11-14T04:37:00;33.23;;;21.23;;
9689;SDS011;4884;42.614;23.340;2022-11-14T04:39:26;26.63;;;16.87;;
9689;SDS011;4884;42.614;23.340;2022-11-14T04:41:51;23.93;;;16.63;;
9689;SDS011;4884;42.614;23.340;2022-11-14T04:44:16;19.37;;;13.37;;
9689;SDS011;4884;42.614;23.340;2022-11-14T04:46:42;17.13;;;11.87;;
9689;SDS011;4884;42.614;23.340;2022-11-14T04:49:07;17.83;;;12.90;;
9689;SDS011;4884;42.614;23.340;2022-11-14T04:51:32;33.83;;;18.30;;
9689;SDS011;4884;42.614;23.340;2022-11-14T04:53:58;44.80;;;27.20;;
9689;SDS011;4884;42.614;23.340;2022-11-14T04:56:23;88.77;;;52.70;;
9689;SDS011;4884;42.614;23.340;2022-11-14T04:58:49;20.87;;;13.97;;
9689;SDS011;4884;42.614;23.340;2022-11-14T05:01:15;24.87;;;16.27;;
9689;SDS011;4884;42.614;23.340;2022-11-14T05:03:40;57.60;;;39.70;;
9689;SDS011;4884;42.614;23.340;2022-11-14T05:06:05;70.30;;;38.40;;
9689;SDS011;4884;42.614;23.340;2022-11-14T05:08:31;57.30;;;31.70;;
9689;SDS011;4884;42.614;23.340;2022-11-14T05:10:56;38.10;;;23.23;;
9689;SDS011;4884;42.614;23.340;2022-11-14T05:13:22;42.40;;;24.47;;
9689;SDS011;4884;42.614;23.340;2022-11-14T05:15:47;48.20;;;31.73;;
9689;SDS011;4884;42.614;23.340;2022-11-14T05:18:12;43.10;;;28.13;;
9689;SDS011;4884;42.614;23.340;2022-11-14T05:20:38;38.10;;;25.17;;
9689;SDS011;4884;42.614;23.340;2022-11-14T05:23:03;42.90;;;28.67;;
9689;SDS011;4884;42.614;23.340;2022-11-14T05:25:29;37.97;;;24.03;;
9689;SDS011;4884;42.614;23.340;2022-11-14T05:27:54;51.77;;;29.43;;
9689;SDS011;4884;42.614;23.340;2022-11-14T05:30:20;51.10;;;31.30;;
9689;SDS011;4884;42.614;23.340;2022-11-14T05:32:45;43.00;;;25.87;;
9689;SDS011;4884;42.614;23.340;2022-11-14T05:35:10;37.40;;;25.97;;
9689;SDS011;4884;42.614;23.340;2022-11-14T05:37:36;39.53;;;26.07;;
9689;SDS011;4884;42.614;23.340;2022-11-14T05:40:02;36.67;;;22.70;;
9689;SDS011;4884;42.614;23.340;2022-11-14T05:42:28;31.07;;;21.27;;
9689;SDS011;4884;42.614;23.340;2022-11-14T05:44:53;35.03;;;20.57;;
9689;SDS011;4884;42.614;23.340;2022-11-14T05:47:19;32.33;;;22.23;;
9689;SDS011;4884;42.614;23.340;2022-11-14T05:49:44;33.03;;;22.63;;
9689;SDS011;4884;42.614;23.340;2022-11-14T05:52:09;40.33;;;23.10;;
9689;SDS011;4884;42.614;23.340;2022-11-14T05:54:35;32.10;;;21.90;;
9689;SDS011;4884;42.614;23.340;2022-11-14T05:57:00;37.60;;;23.13;;
9689;SDS011;4884;42.614;23.340;2022-11-14T05:59:26;43.13;;;27.93;;
9689;SDS011;4884;42.614;23.340;2022-11-14T06:01:51;66.10;;;30.57;;
9689;SDS011;4884;42.614;23.340;2022-11-14T06:04:17;106.40;;;33.43;;
9689;SDS011;4884;42.614;23.340;2022-11-14T06:06:42;137.20;;;34.50;;
9689;SDS011;4884;42.614;23.340;2022-11-14T06:09:08;93.97;;;32.90;;
9689;SDS011;4884;42.614;23.340;2022-11-14T06:11:33;99.33;;;33.00;;
9689;SDS011;4884;42.614;23.340;2022-11-14T06:13:58;102.53;;;33.13;;
9689;SDS011;4884;42.614;23.340;2022-11-14T06:16:24;76.20;;;31.33;;
9689;SDS011;4884;42.614;23.340;2022-11-14T06:18:51;84.63;;;33.03;;
9689;SDS011;4884;42.614;23.340;2022-11-14T06:21:18;81.43;;;49.30;;
9689;SDS011;4884;42.614;23.340;2022-11-14T06:23:44;89.17;;;62.60;;
9689;SDS011;4884;42.614;23.340;2022-11-14T06:26:15;95.20;;;65.10;;
9689;SDS011;4884;42.614;23.340;2022-11-14T06:28:45;90.17;;;57.90;;
9689;SDS011;4884;42.614;23.340;2022-11-14T06:31:11;76.97;;;47.90;;
9689;SDS011;4884;42.614;23.340;2022-11-14T06:33:36;67.07;;;46.00;;
9689;SDS011;4884;42.614;23.340;2022-11-14T06:36:03;56.13;;;41.07;;
9689;SDS011;4884;42.614;23.340;2022-11-14T06:38:29;56.43;;;37.30;;
9689;SDS011;4884;42.614;23.340;2022-11-14T06:43:44;55.50;;;37.13;;
9689;SDS011;4884;42.614;23.340;2022-11-14T06:46:11;47.47;;;33.43;;
9689;SDS011;4884;42.614;23.340;2022-11-14T06:48:39;42.23;;;30.13;;
9689;SDS011;4884;42.614;23.340;2022-11-14T06:51:05;44.70;;;32.97;;
9689;SDS011;4884;42.614;23.340;2022-11-14T06:53:31;42.23;;;29.87;;
9689;SDS011;4884;42.614;23.340;2022-11-14T06:56:02;39.03;;;28.13;;
9689;SDS011;4884;42.614;23.340;2022-11-14T06:58:30;32.60;;;22.90;;
9689;SDS011;4884;42.614;23.340;2022-11-14T07:01:02;37.17;;;25.67;;
9689;SDS011;4884;42.614;23.340;2022-11-14T07:03:29;36.83;;;26.90;;
9689;SDS011;4884;42.614;23.340;2022-11-14T07:05:56;34.10;;;26.03;;
9689;SDS011;4884;42.614;23.340;2022-11-14T07:08:22;35.97;;;26.70;;
9689;SDS011;4884;42.614;23.340;2022-11-14T07:10:47;35.33;;;26.80;;
9689;SDS011;4884;42.614;23.340;2022-11-14T07:13:13;31.77;;;25.33;;
9689;SDS011;4884;42.614;23.340;2022-11-14T07:15:38;30.77;;;23.03;;
9689;SDS011;4884;42.614;23.340;2022-11-14T07:18:03;29.10;;;23.37;;
9689;SDS011;4884;42.614;23.340;2022-11-14T07:20:29;32.83;;;24.53;;
9689;SDS011;4884;42.614;23.340;2022-11-14T07:22:54;34.87;;;24.47;;
9689;SDS011;4884;42.614;23.340;2022-11-14T07:25:19;34.10;;;25.40;;
9689;SDS011;4884;42.614;23.340;2022-11-14T07:27:46;29.90;;;24.40;;
9689;SDS011;4884;42.614;23.340;2022-11-14T07:30:12;34.53;;;24.90;;
9689;SDS011;4884;42.614;23.340;2022-11-14T07:32:38;32.67;;;24.97;;
9689;SDS011;4884;42.614;23.340;2022-11-14T07:35:03;35.50;;;25.77;;
9689;SDS011;4884;42.614;23.340;2022-11-14T07:37:29;33.70;;;26.50;;
9689;SDS011;4884;42.614;23.340;2022-11-14T07:39:54;34.30;;;25.90;;
9689;SDS011;4884;42.614;23.340;2022-11-14T07:42:19;35.13;;;26.33;;
9689;SDS011;4884;42.614;23.340;2022-11-14T07:44:44;34.37;;;27.07;;
9689;SDS011;4884;42.614;23.340;2022-11-14T07:47:10;38.83;;;27.20;;
9689;SDS011;4884;42.614;23.340;2022-11-14T07:49:35;39.07;;;26.87;;
9689;SDS011;4884;42.614;23.340;2022-11-14T07:52:01;34.97;;;28.37;;
9689;SDS011;4884;42.614;23.340;2022-11-14T07:54:26;30.97;;;25.87;;
9689;SDS011;4884;42.614;23.340;2022-11-14T07:56:51;33.00;;;26.60;;
9689;SDS011;4884;42.614;23.340;2022-11-14T07:59:17;38.70;;;27.50;;
9689;SDS011;4884;42.614;23.340;2022-11-14T08:01:42;33.77;;;27.20;;
9689;SDS011;4884;42.614;23.340;2022-11-14T08:04:07;32.07;;;26.97;;
9689;SDS011;4884;42.614;23.340;2022-11-14T08:06:33;36.27;;;27.17;;
9689;SDS011;4884;42.614;23.340;2022-11-14T08:08:58;36.77;;;28.90;;
9689;SDS011;4884;42.614;23.340;2022-11-14T08:11:24;40.10;;;29.70;;
9689;SDS011;4884;42.614;23.340;2022-11-14T08:14:07;39.97;;;28.57;;
9689;SDS011;4884;42.614;23.340;2022-11-14T08:16:33;40.27;;;28.77;;
9689;SDS011;4884;42.614;23.340;2022-11-14T08:18:58;39.43;;;29.47;;
9689;SDS011;4884;42.614;23.340;2022-11-14T08:21:24;40.47;;;29.77;;
9689;SDS011;4884;42.614;23.340;2022-11-14T08:23:49;43.67;;;31.30;;
9689;SDS011;4884;42.614;23.340;2022-11-14T08:26:15;45.73;;;31.43;;
9689;SDS011;4884;42.614;23.340;2022-11-14T08:28:40;41.10;;;30.47;;
9689;SDS011;4884;42.614;23.340;2022-11-14T08:31:05;40.47;;;29.30;;
9689;SDS011;4884;42.614;23.340;2022-11-14T08:33:31;39.20;;;30.60;;
9689;SDS011;4884;42.614;23.340;2022-11-14T08:36:03;39.77;;;30.73;;
9689;SDS011;4884;42.614;23.340;2022-11-14T08:38:30;38.30;;;30.47;;
9689;SDS011;4884;42.614;23.340;2022-11-14T08:40:56;38.27;;;31.20;;
9689;SDS011;4884;42.614;23.340;2022-11-14T08:43:22;36.83;;;29.03;;
9689;SDS011;4884;42.614;23.340;2022-11-14T08:45:48;42.17;;;30.80;;
9689;SDS011;4884;42.614;23.340;2022-11-14T08:48:13;40.87;;;31.03;;
9689;SDS011;4884;42.614;23.340;2022-11-14T08:50:38;39.17;;;28.93;;
9689;SDS011;4884;42.614;23.340;2022-11-14T08:53:04;36.03;;;29.33;;
9689;SDS011;4884;42.614;23.340;2022-11-14T08:55:29;36.13;;;28.77;;
9689;SDS011;4884;42.614;23.340;2022-11-14T08:57:54;38.50;;;27.60;;
9689;SDS011;4884;42.614;23.340;2022-11-14T09:00:20;31.63;;;26.67;;
9689;SDS011;4884;42.614;23.340;2022-11-14T09:02:46;34.40;;;26.57;;
9689;SDS011;4884;42.614;23.340;2022-11-14T09:05:11;38.37;;;28.33;;
9689;SDS011;4884;42.614;23.340;2022-11-14T09:07:36;37.90;;;28.47;;
9689;SDS011;4884;42.614;23.340;2022-11-14T09:10:02;37.00;;;29.67;;
9689;SDS011;4884;42.614;23.340;2022-11-14T09:12:28;33.33;;;27.10;;
9689;SDS011;4884;42.614;23.340;2022-11-14T09:14:53;32.23;;;27.23;;
9689;SDS011;4884;42.614;23.340;2022-11-14T09:17:19;34.63;;;27.67;;
9689;SDS011;4884;42.614;23.340;2022-11-14T09:19:44;32.73;;;27.63;;
9689;SDS011;4884;42.614;23.340;2022-11-14T09:22:09;31.00;;;26.67;;
9689;SDS011;4884;42.614;23.340;2022-11-14T09:24:35;30.03;;;26.83;;
9689;SDS011;4884;42.614;23.340;2022-11-14T09:27:00;35.30;;;27.60;;
9689;SDS011;4884;42.614;23.340;2022-11-14T09:29:25;32.43;;;27.23;;
9689;SDS011;4884;42.614;23.340;2022-11-14T09:31:51;30.77;;;26.90;;
9689;SDS011;4884;42.614;23.340;2022-11-14T09:34:17;33.40;;;26.83;;
9689;SDS011;4884;42.614;23.340;2022-11-14T09:36:42;36.40;;;27.70;;
9689;SDS011;4884;42.614;23.340;2022-11-14T09:39:08;31.60;;;26.70;;
9689;SDS011;4884;42.614;23.340;2022-11-14T09:41:51;33.03;;;27.70;;
9689;SDS011;4884;42.614;23.340;2022-11-14T09:44:28;33.03;;;26.53;;
9689;SDS011;4884;42.614;23.340;2022-11-14T09:47:10;34.30;;;26.77;;
9689;SDS011;4884;42.614;23.340;2022-11-14T09:49:38;31.60;;;26.03;;
9689;SDS011;4884;42.614;23.340;2022-11-14T09:52:12;35.10;;;28.53;;
9689;SDS011;4884;42.614;23.340;2022-11-14T09:54:55;34.17;;;26.50;;
9689;SDS011;4884;42.614;23.340;2022-11-14T09:57:22;34.57;;;26.77;;
9689;SDS011;4884;42.614;23.340;2022-11-14T09:59:49;34.07;;;25.93;;
9689;SDS011;4884;42.614;23.340;2022-11-14T10:02:26;34.13;;;28.07;;
9689;SDS011;4884;42.614;23.340;2022-11-14T10:10:41;34.87;;;28.17;;
9689;SDS011;4884;42.614;23.340;2022-11-14T10:15:59;36.03;;;29.97;;
9689;SDS011;4884;42.614;23.340;2022-11-14T10:21:22;33.20;;;27.13;;
9689;SDS011;4884;42.614;23.340;2022-11-14T10:26:31;31.67;;;28.03;;
9689;SDS011;4884;42.614;23.340;2022-11-14T10:29:24;33.17;;;28.97;;
9689;SDS011;4884;42.614;23.340;2022-11-14T10:34:55;37.07;;;29.73;;
9689;SDS011;4884;42.614;23.340;2022-11-14T10:37:35;33.80;;;28.83;;
9689;SDS011;4884;42.614;23.340;2022-11-14T10:42:43;31.73;;;28.30;;
9689;SDS011;4884;42.614;23.340;2022-11-14T10:45:24;34.17;;;29.00;;
9689;SDS011;4884;42.614;23.340;2022-11-14T10:48:35;34.17;;;27.93;;
9689;SDS011;4884;42.614;23.340;2022-11-14T10:56:24;34.13;;;28.90;;
9689;SDS011;4884;42.614;23.340;2022-11-14T10:58:50;34.50;;;28.77;;
9689;SDS011;4884;42.614;23.340;2022-11-14T11:04:25;36.63;;;29.73;;
9689;SDS011;4884;42.614;23.340;2022-11-14T11:06:56;44.80;;;29.37;;
9689;SDS011;4884;42.614;23.340;2022-11-14T11:09:23;47.27;;;29.57;;
9689;SDS011;4884;42.614;23.340;2022-11-14T11:12:08;36.73;;;28.60;;
9689;SDS011;4884;42.614;23.340;2022-11-14T11:14:40;38.87;;;28.83;;
9689;SDS011;4884;42.614;23.340;2022-11-14T11:17:06;40.10;;;29.67;;
9689;SDS011;4884;42.614;23.340;2022-11-14T11:19:33;38.33;;;30.90;;
9689;SDS011;4884;42.614;23.340;2022-11-14T11:21:58;39.57;;;32.07;;
9689;SDS011;4884;42.614;23.340;2022-11-14T11:24:31;41.73;;;32.67;;
9689;SDS011;4884;42.614;23.340;2022-11-14T11:27:17;38.00;;;30.60;;
9689;SDS011;4884;42.614;23.340;2022-11-14T11:32:36;39.77;;;31.00;;
9689;SDS011;4884;42.614;23.340;2022-11-14T11:35:02;36.67;;;32.50;;
9689;SDS011;4884;42.614;23.340;2022-11-14T11:40:19;52.73;;;36.77;;
9689;SDS011;4884;42.614;23.340;2022-11-14T11:43:08;42.23;;;33.13;;
9689;SDS011;4884;42.614;23.340;2022-11-14T11:45:36;40.97;;;32.07;;
9689;SDS011;4884;42.614;23.340;2022-11-14T11:48:18;39.63;;;32.43;;
9689;SDS011;4884;42.614;23.340;2022-11-14T11:50:44;39.43;;;31.27;;
9689;SDS011;4884;42.614;23.340;2022-11-14T11:55:55;42.17;;;33.53;;
9689;SDS011;4884;42.614;23.340;2022-11-14T11:58:28;42.17;;;31.67;;
9689;SDS011;4884;42.614;23.340;2022-11-14T12:00:57;40.87;;;32.93;;
9689;SDS011;4884;42.614;23.340;2022-11-14T12:03:23;40.20;;;31.67;;
9689;SDS011;4884;42.614;23.340;2022-11-14T12:11:15;41.05;;;31.08;;
9689;SDS011;4884;42.614;23.340;2022-11-14T12:28:04;41.10;;;33.07;;
9689;SDS011;4884;42.614;23.340;2022-11-14T12:30:55;44.87;;;31.63;;
9689;SDS011;4884;42.614;23.340;2022-11-14T12:33:26;39.00;;;32.97;;
9689;SDS011;4884;42.614;23.340;2022-11-14T12:35:56;45.97;;;31.67;;
9689;SDS011;4884;42.614;23.340;2022-11-14T12:38:22;41.77;;;31.73;;
9689;SDS011;4884;42.614;23.340;2022-11-14T12:40:50;36.93;;;29.50;;
9689;SDS011;4884;42.614;23.340;2022-11-14T12:43:26;37.37;;;31.67;;
9689;SDS011;4884;42.614;23.340;2022-11-14T12:50:49;50.83;;;31.37;;
9689;SDS011;4884;42.614;23.340;2022-11-14T13:09:30;44.87;;;32.47;;
9689;SDS011;4884;42.614;23.340;2022-11-14T13:11:56;37.67;;;29.47;;
9689;SDS011;4884;42.614;23.340;2022-11-14T13:14:52;34.47;;;29.20;;
9689;SDS011;4884;42.614;23.340;2022-11-14T13:17:37;41.37;;;29.37;;
9689;SDS011;4884;42.614;23.340;2022-11-14T13:36:10;42.77;;;29.70;;
9689;SDS011;4884;42.614;23.340;2022-11-14T13:38:59;46.57;;;29.43;;
9689;SDS011;4884;42.614;23.340;2022-11-14T13:47:41;19.70;;;15.00;;
9689;SDS011;4884;42.614;23.340;2022-11-14T13:50:16;28.67;;;18.87;;
9689;SDS011;4884;42.614;23.340;2022-11-14T13:52:44;25.93;;;17.40;;
9689;SDS011;4884;42.614;23.340;2022-11-14T13:55:21;28.50;;;18.60;;
9689;SDS011;4884;42.614;23.340;2022-11-14T13:57:59;44.23;;;29.07;;
9689;SDS011;4884;42.614;23.340;2022-11-14T14:00:38;27.03;;;16.57;;
9689;SDS011;4884;42.614;23.340;2022-11-14T14:03:18;18.10;;;14.67;;
9689;SDS011;4884;42.614;23.340;2022-11-14T14:05:58;12.43;;;10.87;;
9689;SDS011;4884;42.614;23.340;2022-11-14T14:08:46;10.17;;;8.43;;
9689;SDS011;4884;42.614;23.340;2022-11-14T14:16:57;17.00;;;13.57;;
9689;SDS011;4884;42.614;23.340;2022-11-14T14:22:34;24.60;;;18.10;;
9689;SDS011;4884;42.614;23.340;2022-11-14T14:30:16;48.90;;;32.23;;
9689;SDS011;4884;42.614;23.340;2022-11-14T14:33:29;52.43;;;32.07;;
9689;SDS011;4884;42.614;23.340;2022-11-14T14:35:36;52.67;;;39.37;;
9689;SDS011;4884;42.614;23.340;2022-11-14T14:38:04;51.67;;;38.30;;
9689;SDS011;4884;42.614;23.340;2022-11-14T14:40:35;53.63;;;39.63;;
9689;SDS011;4884;42.614;23.340;2022-11-14T14:43:02;53.73;;;33.07;;
9689;SDS011;4884;42.614;23.340;2022-11-14T14:45:29;52.67;;;40.37;;
9689;SDS011;4884;42.614;23.340;2022-11-14T14:48:14;50.10;;;38.90;;
9689;SDS011;4884;42.614;23.340;2022-11-14T14:50:41;168.13;;;94.63;;
9689;SDS011;4884;42.614;23.340;2022-11-14T14:53:23;206.13;;;116.87;;
9689;SDS011;4884;42.614;23.340;2022-11-14T15:01:20;454.33;;;265.90;;
9689;SDS011;4884;42.614;23.340;2022-11-14T15:03:42;137.97;;;81.00;;
9689;SDS011;4884;42.614;23.340;2022-11-14T15:08:56;60.53;;;45.17;;
9689;SDS011;4884;42.614;23.340;2022-11-14T15:11:25;72.07;;;47.97;;
9689;SDS011;4884;42.614;23.340;2022-11-14T15:13:51;101.03;;;68.00;;
9689;SDS011;4884;42.614;23.340;2022-11-14T15:16:19;58.20;;;38.77;;
9689;SDS011;4884;42.614;23.340;2022-11-14T15:18:45;72.27;;;51.13;;
9689;SDS011;4884;42.614;23.340;2022-11-14T15:23:57;61.13;;;43.93;;
9689;SDS011;4884;42.614;23.340;2022-11-14T15:26:24;59.70;;;46.47;;
9689;SDS011;4884;42.614;23.340;2022-11-14T15:28:49;57.20;;;44.50;;
9689;SDS011;4884;42.614;23.340;2022-11-14T15:31:16;104.87;;;69.03;;
9689;SDS011;4884;42.614;23.340;2022-11-14T15:33:43;99.03;;;56.00;;
9689;SDS011;4884;42.614;23.340;2022-11-14T15:36:10;38.83;;;26.63;;
9689;SDS011;4884;42.614;23.340;2022-11-14T15:38:36;69.67;;;45.03;;
9689;SDS011;4884;42.614;23.340;2022-11-14T15:43:48;57.90;;;43.23;;
9689;SDS011;4884;42.614;23.340;2022-11-14T15:48:53;80.27;;;62.00;;
9689;SDS011;4884;42.614;23.340;2022-11-14T15:51:36;69.93;;;51.20;;
9689;SDS011;4884;42.614;23.340;2022-11-14T15:54:03;77.73;;;44.27;;
9689;SDS011;4884;42.614;23.340;2022-11-14T15:56:28;91.90;;;45.93;;
9689;SDS011;4884;42.614;23.340;2022-11-14T15:58:54;91.27;;;62.10;;
9689;SDS011;4884;42.614;23.340;2022-11-14T16:01:23;18.33;;;14.07;;
9689;SDS011;4884;42.614;23.340;2022-11-14T16:03:51;17.20;;;15.30;;
9689;SDS011;4884;42.614;23.340;2022-11-14T16:06:16;17.90;;;14.70;;
9689;SDS011;4884;42.614;23.340;2022-11-14T16:08:42;28.43;;;20.33;;
9689;SDS011;4884;42.614;23.340;2022-11-14T16:11:07;34.57;;;25.87;;
9689;SDS011;4884;42.614;23.340;2022-11-14T16:13:32;63.93;;;42.60;;
9689;SDS011;4884;42.614;23.340;2022-11-14T16:15:58;49.33;;;36.27;;
9689;SDS011;4884;42.614;23.340;2022-11-14T16:18:23;44.97;;;31.73;;
9689;SDS011;4884;42.614;23.340;2022-11-14T16:20:48;48.57;;;32.83;;
9689;SDS011;4884;42.614;23.340;2022-11-14T16:23:15;54.43;;;35.13;;
9689;SDS011;4884;42.614;23.340;2022-11-14T16:25:40;63.07;;;40.13;;
9689;SDS011;4884;42.614;23.340;2022-11-14T16:28:06;132.13;;;69.17;;
9689;SDS011;4884;42.614;23.340;2022-11-14T16:30:31;222.53;;;108.30;;
9689;SDS011;4884;42.614;23.340;2022-11-14T16:32:57;211.30;;;105.57;;
9689;SDS011;4884;42.614;23.340;2022-11-14T16:35:26;143.03;;;74.70;;
9689;SDS011;4884;42.614;23.340;2022-11-14T16:37:53;211.30;;;102.40;;
9689;SDS011;4884;42.614;23.340;2022-11-14T16:40:20;50.87;;;28.03;;
9689;SDS011;4884;42.614;23.340;2022-11-14T16:42:53;226.33;;;95.60;;
9689;SDS011;4884;42.614;23.340;2022-11-14T16:45:19;95.00;;;44.83;;
9689;SDS011;4884;42.614;23.340;2022-11-14T16:47:45;17.43;;;13.63;;
9689;SDS011;4884;42.614;23.340;2022-11-14T16:50:10;60.17;;;31.97;;
9689;SDS011;4884;42.614;23.340;2022-11-14T16:52:36;45.70;;;26.30;;
9689;SDS011;4884;42.614;23.340;2022-11-14T16:55:03;44.23;;;35.27;;
9689;SDS011;4884;42.614;23.340;2022-11-14T16:57:30;35.87;;;26.77;;
9689;SDS011;4884;42.614;23.340;2022-11-14T16:59:55;37.73;;;26.30;;